createdAt,value
2023-01-09T00:01:51.871Z,5.80
2023-01-09T00:04:21.940Z,8.30
2023-01-09T00:06:54.333Z,9.00
2023-01-09T00:09:23.878Z,8.63
2023-01-09T00:11:54.918Z,9.33
2023-01-09T00:14:24.445Z,7.33
2023-01-09T00:16:56.251Z,8.07
2023-01-09T00:19:26.315Z,6.20
2023-01-09T00:21:54.807Z,8.07
2023-01-09T00:24:23.270Z,7.47
2023-01-09T00:26:51.764Z,5.63
2023-01-09T00:29:20.447Z,6.17
2023-01-09T00:31:48.875Z,4.90
2023-01-09T00:34:17.361Z,5.57
2023-01-09T00:36:47.236Z,6.10
2023-01-09T00:39:15.745Z,4.77
2023-01-09T00:41:48.240Z,6.17
2023-01-09T00:44:21.583Z,5.40
2023-01-09T00:46:53.534Z,6.83
2023-01-09T00:49:23.150Z,4.83
2023-01-09T00:51:54.875Z,6.40
2023-01-09T00:54:24.093Z,5.10
2023-01-09T00:56:52.583Z,9.40
2023-01-09T00:59:21.070Z,4.17
2023-01-09T01:01:50.070Z,5.80
2023-01-09T01:04:36.112Z,6.50
2023-01-09T01:07:23.128Z,4.03
2023-01-09T01:09:51.804Z,5.53
2023-01-09T01:12:20.314Z,2.40
2023-01-09T01:14:48.860Z,4.30
2023-01-09T01:17:17.309Z,5.43
2023-01-09T01:19:45.789Z,7.30
2023-01-09T01:22:16.109Z,6.07
2023-01-09T01:24:44.809Z,6.17
2023-01-09T01:27:13.240Z,3.53
2023-01-09T01:29:41.622Z,5.27
2023-01-09T01:32:10.243Z,7.47
2023-01-09T01:34:38.968Z,5.77
2023-01-09T01:37:07.403Z,4.33
2023-01-09T01:39:37.404Z,10.00
2023-01-09T01:42:06.759Z,5.13
2023-01-09T01:45:19.740Z,4.03
2023-01-09T01:47:59.101Z,5.33
2023-01-09T01:50:33.531Z,3.77
2023-01-09T01:53:09.302Z,2.90
2023-01-09T01:55:43.834Z,2.87
2023-01-09T01:58:15.883Z,6.73
2023-01-09T02:00:47.021Z,3.40
2023-01-09T02:03:19.697Z,4.17
2023-01-09T02:05:48.481Z,2.37
2023-01-09T02:08:17.602Z,2.47
2023-01-09T02:10:48.325Z,3.57
2023-01-09T02:13:17.152Z,1.87
2023-01-09T02:16:00.236Z,2.03
2023-01-09T02:18:44.075Z,1.73
2023-01-09T02:21:25.421Z,2.77
2023-01-09T02:24:26.205Z,1.50
2023-01-09T02:27:33.094Z,1.77
2023-01-09T02:30:32.328Z,2.20
2023-01-09T02:33:41.067Z,2.50
2023-01-09T02:36:20.013Z,3.90
2023-01-09T02:39:05.860Z,4.30
2023-01-09T02:41:41.677Z,3.63
2023-01-09T02:44:23.893Z,3.77
2023-01-09T02:47:06.218Z,4.93
2023-01-09T02:49:37.275Z,5.40
2023-01-09T02:52:25.806Z,5.17
2023-01-09T02:55:09.237Z,4.70
2023-01-09T02:57:56.583Z,4.83
2023-01-09T03:00:36.213Z,4.40
2023-01-09T03:03:14.180Z,5.40
2023-01-09T03:05:48.959Z,5.70
2023-01-09T03:08:21.308Z,5.17
2023-01-09T03:10:58.075Z,5.53
2023-01-09T03:13:31.309Z,5.17
2023-01-09T03:16:04.659Z,5.40
2023-01-09T03:18:36.307Z,5.43
2023-01-09T03:21:07.915Z,7.07
2023-01-09T03:23:51.537Z,4.13
2023-01-09T03:26:20.829Z,7.60
2023-01-09T03:28:50.335Z,8.83
2023-01-09T03:31:20.016Z,6.50
2023-01-09T03:33:50.336Z,5.53
2023-01-09T03:36:21.414Z,6.60
2023-01-09T03:38:51.518Z,8.03
2023-01-09T03:41:20.810Z,8.50
2023-01-09T03:43:49.569Z,9.00
2023-01-09T03:46:18.299Z,9.97
2023-01-09T03:48:46.833Z,11.17
2023-01-09T03:51:16.785Z,9.43
2023-01-09T03:53:45.445Z,10.10
2023-01-09T03:56:14.030Z,8.77
2023-01-09T03:58:42.665Z,8.67
2023-01-09T04:01:12.897Z,12.00
2023-01-09T04:03:41.957Z,11.30
2023-01-09T04:06:10.742Z,9.70
2023-01-09T04:08:53.826Z,12.83
2023-01-09T04:11:22.606Z,10.37
2023-01-09T04:13:51.471Z,10.03
2023-01-09T04:16:21.532Z,10.43
2023-01-09T04:18:50.082Z,8.23
2023-01-09T04:21:18.623Z,8.87
2023-01-09T04:23:48.486Z,9.03
2023-01-09T04:26:17.075Z,12.73
2023-01-09T04:28:45.677Z,10.60
2023-01-09T04:31:14.313Z,13.03
2023-01-09T04:33:43.241Z,11.67
2023-01-09T04:36:12.142Z,10.53
2023-01-09T04:38:40.720Z,13.40
2023-01-09T04:41:10.653Z,10.23
2023-01-09T04:43:42.379Z,13.27
2023-01-09T04:46:10.978Z,11.97
2023-01-09T04:48:39.556Z,11.13
2023-01-09T04:51:07.988Z,12.07
2023-01-09T04:53:36.431Z,10.67
2023-01-09T04:56:05.082Z,12.17
2023-01-09T04:58:35.002Z,12.97
2023-01-09T05:01:03.673Z,12.10
2023-01-09T05:03:32.240Z,14.53
2023-01-09T05:06:00.635Z,13.50
2023-01-09T05:08:29.063Z,12.20
2023-01-09T05:10:57.681Z,12.70
2023-01-09T05:13:26.266Z,14.53
2023-01-09T05:15:56.532Z,12.63
2023-01-09T05:18:25.257Z,15.33
2023-01-09T05:20:53.857Z,14.93
2023-01-09T05:23:22.322Z,16.37
2023-01-09T05:25:50.873Z,13.23
2023-01-09T05:28:19.538Z,20.07
2023-01-09T05:30:49.155Z,18.67
2023-01-09T05:33:19.002Z,16.97
2023-01-09T05:35:47.600Z,22.40
2023-01-09T05:38:15.996Z,20.37
2023-01-09T05:40:44.478Z,24.30
2023-01-09T05:43:12.979Z,28.60
2023-01-09T05:45:41.440Z,22.87
2023-01-09T05:48:09.982Z,26.97
2023-01-09T05:50:39.913Z,28.93
2023-01-09T05:53:08.316Z,33.67
2023-01-09T05:55:36.858Z,32.43
2023-01-09T05:58:05.378Z,29.60
2023-01-09T06:00:34.177Z,39.00
2023-01-09T06:03:03.267Z,33.97
2023-01-09T06:05:31.742Z,37.03
2023-01-09T06:08:02.023Z,33.63
2023-01-09T06:10:30.456Z,34.23
2023-01-09T06:12:58.825Z,32.20
2023-01-09T06:15:27.374Z,34.73
2023-01-09T06:17:56.081Z,35.50
2023-01-09T06:20:24.622Z,32.53
2023-01-09T06:22:53.339Z,35.63
2023-01-09T06:25:23.336Z,34.47
2023-01-09T06:27:52.960Z,34.40
2023-01-09T06:30:22.127Z,32.50
2023-01-09T06:32:51.620Z,33.33
2023-01-09T06:35:21.019Z,28.63
2023-01-09T06:37:50.915Z,29.93
2023-01-09T06:40:21.256Z,30.23
2023-01-09T06:42:51.474Z,28.87
2023-01-09T06:45:20.531Z,33.47
2023-01-09T06:47:50.228Z,28.37
2023-01-09T06:50:19.331Z,31.53
2023-01-09T06:52:47.870Z,29.40
2023-01-09T06:55:17.785Z,31.60
2023-01-09T06:57:46.430Z,30.73
2023-01-09T07:00:18.611Z,30.33
2023-01-09T07:02:47.262Z,34.10
2023-01-09T07:05:16.637Z,26.97
2023-01-09T07:07:45.209Z,27.63
2023-01-09T07:10:13.829Z,31.70
2023-01-09T07:12:42.300Z,26.80
2023-01-09T07:15:11.943Z,29.53
2023-01-09T07:17:41.908Z,27.90
2023-01-09T07:20:12.526Z,25.60
2023-01-09T07:22:41.103Z,24.87
2023-01-09T07:25:10.110Z,22.43
2023-01-09T07:27:39.991Z,24.73
2023-01-09T07:30:10.262Z,21.90
2023-01-09T07:32:40.540Z,22.67
2023-01-09T07:35:12.099Z,21.20
2023-01-09T07:37:40.673Z,18.77
2023-01-09T07:40:11.075Z,25.17
2023-01-09T07:42:39.849Z,20.00
2023-01-09T07:45:09.720Z,18.93
2023-01-09T07:47:38.065Z,23.23
2023-01-09T07:50:07.623Z,22.70
2023-01-09T07:52:37.586Z,16.93
2023-01-09T07:55:12.727Z,16.80
2023-01-09T07:57:41.501Z,20.77
2023-01-09T08:00:13.454Z,15.17
2023-01-09T08:02:41.971Z,16.60
2023-01-09T08:05:20.234Z,19.40
2023-01-09T08:07:51.624Z,20.50
2023-01-09T08:10:21.204Z,15.50
2023-01-09T08:12:50.397Z,19.17
2023-01-09T08:15:19.112Z,17.03
2023-01-09T08:17:48.408Z,16.00
2023-01-09T08:20:18.848Z,15.17
2023-01-09T08:22:50.808Z,16.60
2023-01-09T08:25:19.991Z,15.37
2023-01-09T08:27:48.857Z,14.00
2023-01-09T08:30:19.067Z,16.40
2023-01-09T08:32:51.232Z,19.60
2023-01-09T08:35:20.623Z,12.47
2023-01-09T08:37:51.115Z,12.17
2023-01-09T08:40:20.067Z,16.63
2023-01-09T08:43:05.908Z,12.97
2023-01-09T08:45:52.057Z,11.57
2023-01-09T08:48:20.467Z,13.33
2023-01-09T08:50:48.912Z,12.43
2023-01-09T08:53:18.727Z,11.27
2023-01-09T08:55:48.000Z,10.27
2023-01-09T08:58:16.483Z,13.30
2023-01-09T09:00:44.973Z,13.80
2023-01-09T09:03:13.483Z,10.90
2023-01-09T09:05:42.010Z,14.30
2023-01-09T09:08:10.502Z,11.23
2023-01-09T09:10:40.861Z,14.00
2023-01-09T09:13:09.365Z,11.67
2023-01-09T09:15:39.104Z,11.60
2023-01-09T09:18:09.352Z,12.73
2023-01-09T09:20:39.943Z,13.37
2023-01-09T09:23:09.384Z,10.33
2023-01-09T09:25:39.583Z,10.80
2023-01-09T09:28:08.555Z,11.13
2023-01-09T09:30:37.178Z,10.43
2023-01-09T09:33:06.479Z,13.07
2023-01-09T09:35:35.550Z,13.60
2023-01-09T09:38:06.595Z,13.23
2023-01-09T09:41:04.784Z,10.77
2023-01-09T09:44:19.210Z,11.00
2023-01-09T09:46:54.383Z,12.70
2023-01-09T09:49:30.563Z,10.13
2023-01-09T09:52:07.476Z,10.30
2023-01-09T09:54:41.814Z,9.80
2023-01-09T09:57:17.650Z,11.13
2023-01-09T09:59:50.989Z,11.07
2023-01-09T10:02:33.142Z,9.53
2023-01-09T10:05:11.741Z,10.37
2023-01-09T10:07:48.165Z,6.27
2023-01-09T10:10:26.458Z,10.43
2023-01-09T10:12:59.055Z,8.27
2023-01-09T10:15:40.114Z,9.37
2023-01-09T10:18:30.932Z,9.60
2023-01-09T10:21:01.717Z,8.43
2023-01-09T10:24:21.079Z,11.53
2023-01-09T10:26:54.237Z,10.53
2023-01-09T10:29:51.839Z,8.37
2023-01-09T10:32:42.662Z,9.93
2023-01-09T10:35:48.542Z,11.30
2023-01-09T10:38:24.135Z,10.53
2023-01-09T10:41:01.599Z,7.03
2023-01-09T10:43:37.427Z,9.67
2023-01-09T10:46:13.467Z,9.20
2023-01-09T10:48:47.371Z,10.20
2023-01-09T10:51:21.545Z,10.67
2023-01-09T10:53:54.137Z,7.40
2023-01-09T10:56:26.497Z,9.30
2023-01-09T10:58:56.924Z,8.73
2023-01-09T11:01:30.536Z,9.60
2023-01-09T11:03:59.276Z,8.47
2023-01-09T11:06:38.191Z,7.67
2023-01-09T11:09:08.041Z,8.67
2023-01-09T11:11:40.788Z,9.67
2023-01-09T11:14:17.692Z,9.00
2023-01-09T11:17:15.171Z,9.07
2023-01-09T11:20:03.883Z,9.83
2023-01-09T11:22:47.378Z,10.03
2023-01-09T11:25:18.605Z,10.83
2023-01-09T11:28:07.165Z,8.17
2023-01-09T11:30:37.061Z,10.83
2023-01-09T11:33:17.234Z,7.40
2023-01-09T11:36:06.547Z,7.73
2023-01-09T11:38:49.895Z,7.97
2023-01-09T11:41:23.443Z,11.53
2023-01-09T11:43:54.810Z,9.70
2023-01-09T11:46:38.660Z,8.00
2023-01-09T11:49:24.136Z,10.07
2023-01-09T11:52:17.254Z,10.43
2023-01-09T11:54:50.732Z,7.97
2023-01-09T11:57:19.608Z,8.13
2023-01-09T11:59:48.122Z,11.53
2023-01-09T12:02:53.736Z,9.80
2023-01-09T12:05:37.976Z,10.47
2023-01-09T12:08:24.930Z,13.10
2023-01-09T12:11:13.863Z,10.93
2023-01-09T12:14:01.070Z,7.83
2023-01-09T12:16:37.924Z,8.00
2023-01-09T12:19:28.662Z,8.03
2023-01-09T12:22:11.654Z,7.40
2023-01-09T12:25:07.938Z,7.40
2023-01-09T12:27:56.763Z,11.60
2023-01-09T12:30:47.788Z,9.87
2023-01-09T12:33:33.889Z,9.87
2023-01-09T12:36:17.825Z,9.20
2023-01-09T12:38:56.882Z,10.93
2023-01-09T12:42:15.415Z,10.00
2023-01-09T12:44:54.660Z,10.37
2023-01-09T12:47:50.366Z,12.30
2023-01-09T12:51:15.124Z,9.53
2023-01-09T12:53:47.871Z,9.00
2023-01-09T12:56:23.233Z,8.07
2023-01-09T12:58:55.671Z,11.53
2023-01-09T13:01:30.631Z,11.73
2023-01-09T13:04:10.813Z,11.67
2023-01-09T13:06:45.437Z,9.10
2023-01-09T13:09:27.152Z,11.80
2023-01-09T13:12:09.132Z,13.10
2023-01-09T13:15:00.227Z,11.63
2023-01-09T13:17:36.405Z,11.97
2023-01-09T13:20:19.627Z,12.77
2023-01-09T13:22:50.910Z,10.93
2023-01-09T13:25:43.402Z,12.50
2023-01-09T13:28:20.466Z,10.33
2023-01-09T13:31:31.713Z,10.97
2023-01-09T13:34:04.548Z,9.67
2023-01-09T13:36:40.025Z,13.27
2023-01-09T13:39:08.767Z,10.27
2023-01-09T13:42:06.818Z,10.57
2023-01-09T13:44:36.832Z,10.07
2023-01-09T13:47:05.831Z,10.93
2023-01-09T13:50:20.853Z,10.47
2023-01-09T13:52:49.544Z,14.00
2023-01-09T13:55:36.007Z,12.63
2023-01-09T13:58:27.314Z,11.63
2023-01-09T14:01:47.513Z,12.37
2023-01-09T14:04:45.466Z,12.83
2023-01-09T14:07:25.126Z,17.27
2023-01-09T14:10:00.679Z,15.67
2023-01-09T14:12:32.377Z,14.33
2023-01-09T14:15:03.297Z,16.23
2023-01-09T14:17:39.185Z,14.10
2023-01-09T14:20:24.885Z,17.30
2023-01-09T14:23:18.198Z,14.07
2023-01-09T14:25:47.556Z,15.93
2023-01-09T14:28:23.974Z,15.77
2023-01-09T14:31:11.122Z,15.07
2023-01-09T14:33:41.019Z,15.53
2023-01-09T14:36:19.520Z,14.00
2023-01-09T14:38:49.719Z,13.33
2023-01-09T14:41:40.459Z,13.80
2023-01-09T14:44:26.264Z,15.70
2023-01-09T14:46:56.207Z,15.00
2023-01-09T14:49:37.498Z,15.40
2023-01-09T14:52:21.681Z,15.50
2023-01-09T14:54:51.542Z,16.57
2023-01-09T14:57:31.067Z,17.73
2023-01-09T15:00:01.389Z,15.30
2023-01-09T15:02:36.236Z,17.13
2023-01-09T15:05:09.618Z,16.03
2023-01-09T15:07:44.602Z,16.77
2023-01-09T15:10:20.192Z,20.63
2023-01-09T15:12:51.651Z,15.80
2023-01-09T15:15:22.001Z,17.10
2023-01-09T15:18:00.346Z,15.97
2023-01-09T15:20:33.432Z,15.97
2023-01-09T15:23:04.307Z,16.63
2023-01-09T15:25:39.995Z,18.33
2023-01-09T15:28:27.034Z,16.57
2023-01-09T15:31:01.141Z,15.17
2023-01-09T15:33:29.963Z,16.50
2023-01-09T15:36:02.642Z,17.70
2023-01-09T15:38:36.156Z,18.27
2023-01-09T15:41:11.120Z,15.87
2023-01-09T15:43:44.441Z,20.13
2023-01-09T15:46:16.617Z,23.40
2023-01-09T15:48:47.396Z,21.47
2023-01-09T15:51:18.668Z,20.13
2023-01-09T15:53:50.313Z,16.57
2023-01-09T15:56:24.269Z,15.00
2023-01-09T15:58:54.105Z,15.17
2023-01-09T16:01:32.607Z,13.23
2023-01-09T16:04:10.785Z,11.80
2023-01-09T16:06:48.140Z,16.70
2023-01-09T16:09:21.155Z,18.83
2023-01-09T16:11:53.424Z,20.13
2023-01-09T16:14:25.167Z,23.23
2023-01-09T16:16:55.258Z,12.47
2023-01-09T16:19:34.571Z,18.27
2023-01-09T16:22:05.379Z,11.17
2023-01-09T16:24:50.865Z,14.60
2023-01-09T16:27:28.776Z,16.40
2023-01-09T16:29:59.646Z,17.97
2023-01-09T16:32:31.005Z,11.83
2023-01-09T16:35:04.617Z,13.00
2023-01-09T16:37:37.535Z,10.93
2023-01-09T16:40:26.574Z,12.53
2023-01-09T16:43:08.568Z,12.23
2023-01-09T16:45:39.487Z,12.17
2023-01-09T16:48:21.759Z,11.77
2023-01-09T16:50:50.365Z,11.07
2023-01-09T16:53:24.250Z,6.67
2023-01-09T16:55:55.343Z,8.77
2023-01-09T16:58:27.598Z,11.27
2023-01-09T17:00:56.496Z,6.80
2023-01-09T17:03:25.605Z,11.40
2023-01-09T17:05:57.429Z,10.33
2023-01-09T17:08:30.609Z,10.47
2023-01-09T17:11:00.046Z,8.13
2023-01-09T17:13:28.949Z,11.97
2023-01-09T17:15:58.524Z,11.37
2023-01-09T17:18:29.630Z,9.97
2023-01-09T17:20:59.783Z,12.07
2023-01-09T17:23:30.726Z,11.10
2023-01-09T17:26:18.183Z,10.23
2023-01-09T17:28:50.970Z,13.07
2023-01-09T17:31:19.938Z,13.00
2023-01-09T17:33:48.462Z,14.37
2023-01-09T17:36:26.588Z,12.90
2023-01-09T17:38:56.728Z,15.43
2023-01-09T17:41:27.682Z,12.57
2023-01-09T17:43:56.224Z,14.40
2023-01-09T17:46:28.748Z,13.60
2023-01-09T17:48:57.549Z,11.83
2023-01-09T17:51:26.264Z,18.97
2023-01-09T17:53:56.818Z,16.90
2023-01-09T17:56:29.686Z,12.17
2023-01-09T17:58:58.461Z,13.87
2023-01-09T18:01:27.468Z,19.03
2023-01-09T18:03:55.878Z,15.63
2023-01-09T18:06:25.017Z,14.10
2023-01-09T18:08:53.721Z,14.67
2023-01-09T18:11:24.992Z,16.57
2023-01-09T18:13:55.199Z,12.80
2023-01-09T18:16:26.498Z,15.20
2023-01-09T18:18:58.378Z,24.97
2023-01-09T18:21:28.607Z,16.00
2023-01-09T18:23:57.924Z,16.43
2023-01-09T18:26:27.801Z,16.37
2023-01-09T18:28:58.960Z,19.37
2023-01-09T18:31:32.325Z,18.77
2023-01-09T18:34:05.270Z,21.00
2023-01-09T18:36:34.105Z,15.47
2023-01-09T18:39:04.951Z,17.27
2023-01-09T18:41:34.857Z,24.30
2023-01-09T18:44:04.019Z,18.30
2023-01-09T18:46:33.165Z,22.47
2023-01-09T18:49:05.019Z,24.37
2023-01-09T18:51:36.097Z,19.33
2023-01-09T18:54:04.861Z,29.53
2023-01-09T18:56:34.794Z,15.10
2023-01-09T18:59:03.212Z,18.80
2023-01-09T19:01:32.721Z,17.03
2023-01-09T19:04:02.081Z,15.63
2023-01-09T19:06:32.261Z,17.07
2023-01-09T19:09:01.230Z,17.80
2023-01-09T19:11:30.019Z,19.60
2023-01-09T19:14:00.010Z,20.57
2023-01-09T19:16:28.803Z,16.67
2023-01-09T19:18:58.345Z,17.83
2023-01-09T19:21:27.433Z,21.83
2023-01-09T19:23:56.032Z,19.63
2023-01-09T19:26:26.521Z,22.20
2023-01-09T19:28:57.897Z,16.50
2023-01-09T19:31:30.188Z,20.80
2023-01-09T19:33:59.720Z,23.07
2023-01-09T19:36:29.663Z,20.97
2023-01-09T19:38:58.580Z,31.63
2023-01-09T19:41:28.180Z,18.23
2023-01-09T19:43:56.966Z,19.63
2023-01-09T19:46:28.590Z,20.47
2023-01-09T19:48:59.101Z,17.20
2023-01-09T19:51:28.103Z,19.73
2023-01-09T19:56:31.217Z,21.60
2023-01-09T19:59:02.364Z,20.30
2023-01-09T20:01:34.967Z,24.53
2023-01-09T20:04:10.096Z,23.57
2023-01-09T20:06:42.498Z,16.67
2023-01-09T20:09:12.445Z,20.90
2023-01-09T20:11:41.784Z,19.97
2023-01-09T20:14:12.959Z,20.83
2023-01-09T20:16:43.720Z,22.23
2023-01-09T20:19:14.975Z,21.17
2023-01-09T20:21:44.322Z,20.40
2023-01-09T20:24:17.389Z,17.13
2023-01-09T20:26:47.563Z,15.83
2023-01-09T20:29:16.924Z,17.60
2023-01-09T20:31:47.052Z,18.87
2023-01-09T20:34:16.413Z,19.63
2023-01-09T20:36:46.425Z,21.37
2023-01-09T20:39:14.971Z,19.23
2023-01-09T20:41:43.469Z,17.60
2023-01-09T20:44:15.723Z,16.07
2023-01-09T20:46:48.353Z,16.03
2023-01-09T20:49:19.543Z,13.00
2023-01-09T20:51:50.933Z,14.50
2023-01-09T20:54:22.446Z,18.23
2023-01-09T20:56:52.400Z,14.97
2023-01-09T20:59:22.380Z,15.37
2023-01-09T21:01:52.498Z,15.47
2023-01-09T21:04:21.741Z,14.07
2023-01-09T21:06:50.645Z,16.73
2023-01-09T21:09:20.410Z,15.33
2023-01-09T21:11:49.108Z,14.67
2023-01-09T21:14:17.716Z,12.73
2023-01-09T21:16:54.216Z,10.90
2023-01-09T21:19:24.894Z,12.63
2023-01-09T21:21:53.830Z,13.00
2023-01-09T21:24:22.261Z,12.80
2023-01-09T21:26:50.740Z,14.67
2023-01-09T21:29:19.322Z,11.53
2023-01-09T21:31:47.764Z,13.17
2023-01-09T21:34:20.157Z,12.90
2023-01-09T21:36:51.097Z,10.57
2023-01-09T21:39:21.701Z,11.80
2023-01-09T21:42:07.577Z,11.97
2023-01-09T21:44:53.790Z,10.97
2023-01-09T21:47:22.985Z,11.43
2023-01-09T21:49:51.781Z,10.53
2023-01-09T21:52:22.212Z,11.40
2023-01-09T21:54:50.722Z,7.77
2023-01-09T21:57:19.428Z,9.83
2023-01-09T21:59:47.821Z,11.20
2023-01-09T22:02:16.957Z,14.40
2023-01-09T22:04:48.940Z,9.27
2023-01-09T22:07:17.773Z,10.67
2023-01-09T22:09:47.917Z,9.33
2023-01-09T22:12:16.503Z,10.77
2023-01-09T22:14:44.957Z,11.03
2023-01-09T22:17:15.981Z,7.53
2023-01-09T22:19:44.691Z,8.07
2023-01-09T22:22:13.195Z,11.50
2023-01-09T22:24:41.764Z,11.73
2023-01-09T22:27:11.845Z,11.50
2023-01-09T22:29:40.564Z,9.07
2023-01-09T22:32:09.756Z,9.70
2023-01-09T22:34:38.203Z,8.80
2023-01-09T22:37:06.670Z,11.97
2023-01-09T22:39:36.215Z,9.87
2023-01-09T22:42:05.297Z,9.53
2023-01-09T22:44:35.451Z,9.77
2023-01-09T22:47:04.014Z,7.83
2023-01-09T22:49:37.318Z,8.90
2023-01-09T22:52:19.963Z,9.03
2023-01-09T22:54:49.188Z,11.27
2023-01-09T22:57:17.785Z,8.37
2023-01-09T22:59:47.820Z,11.13
2023-01-09T23:02:16.854Z,10.07
2023-01-09T23:04:46.318Z,12.23
2023-01-09T23:07:17.692Z,8.63
2023-01-09T23:09:46.847Z,10.23
2023-01-09T23:12:16.358Z,10.80
2023-01-09T23:14:46.274Z,8.93
2023-01-09T23:17:14.964Z,8.57
2023-01-09T23:19:43.629Z,9.77
2023-01-09T23:22:12.290Z,10.97
2023-01-09T23:24:40.990Z,9.87
2023-01-09T23:27:09.504Z,8.77
2023-01-09T23:29:39.728Z,14.63
2023-01-09T23:32:09.732Z,6.20
2023-01-09T23:34:38.476Z,7.90
2023-01-09T23:37:09.218Z,10.70
2023-01-09T23:39:38.015Z,6.97
2023-01-09T23:42:33.338Z,8.57
2023-01-09T23:45:02.055Z,9.03
2023-01-09T23:47:31.995Z,8.70
2023-01-09T23:50:00.691Z,9.73
2023-01-09T23:52:29.315Z,7.07
2023-01-09T23:54:57.825Z,11.10
2023-01-09T23:57:26.693Z,9.63
2023-01-09T23:59:55.438Z,7.93
